Time;durP1;ratioP1;P1;durP2;ratioP2;P2;SDS_P1;SDS_P2;PMS_P1;PMS_P2;Temp;Humidity;BMP_temperature;BMP_pressure;BME280_temperature;BME280_humidity;BME280_pressure;Samples;Min_cycle;Max_cycle;Signal;HPM_P1;HPM_P2
2022/05/28 00:01:44;;;;;;;15.18;3.30;;;;;;;;;;5055657;28;20288;-66
2022/05/28 00:04:13;;;;;;;10.17;2.90;;;;;;;;;;5055374;28;20565;-67
2022/05/28 00:06:42;;;;;;;8.60;3.47;;;;;;;;;;5055370;28;20491;-67
2022/05/28 00:09:09;;;;;;;4.93;2.10;;;;;;;;;;5055084;28;20445;-67
2022/05/28 00:11:37;;;;;;;7.40;3.42;;;;;;;;;;5055345;28;20201;-67
2022/05/28 00:14:05;;;;;;;8.77;2.28;;;;;;;;;;5055266;28;20332;-66
2022/05/28 00:16:32;;;;;;;11.73;3.70;;;;;;;;;;5055215;28;20209;-66
2022/05/28 00:19:00;;;;;;;4.00;2.33;;;;;;;;;;5054840;28;20514;-66
2022/05/28 00:21:28;;;;;;;8.00;3.27;;;;;;;;;;5055146;28;21024;-66
2022/05/28 00:23:57;;;;;;;7.13;3.50;;;;;;;;;;5055358;28;20448;-67
2022/05/28 00:26:25;;;;;;;11.10;3.80;;;;;;;;;;5055100;28;20215;-66
2022/05/28 00:28:52;;;;;;;10.27;3.55;;;;;;;;;;5054937;28;20451;-67
2022/05/28 00:31:20;;;;;;;10.57;3.72;;;;;;;;;;5055068;28;20209;-67
2022/05/28 00:33:47;;;;;;;14.98;3.30;;;;;;;;;;5054687;28;20603;-66
2022/05/28 00:36:14;;;;;;;14.38;2.95;;;;;;;;;;5054891;28;20227;-66
2022/05/28 00:38:42;;;;;;;6.88;3.63;;;;;;;;;;5054830;28;20211;-66
2022/05/28 00:41:12;;;;;;;7.63;2.92;;;;;;;;;;5055047;28;20294;-67
2022/05/28 00:43:40;;;;;;;6.65;2.88;;;;;;;;;;5054586;28;20208;-66
2022/05/28 00:46:09;;;;;;;7.95;3.30;;;;;;;;;;5054647;28;20264;-66
2022/05/28 00:48:37;;;;;;;5.65;2.97;;;;;;;;;;5054269;28;20206;-66
2022/05/28 00:51:06;;;;;;;15.77;3.72;;;;;;;;;;5054861;28;20559;-66
2022/05/28 00:53:34;;;;;;;8.60;3.57;;;;;;;;;;5054158;28;20197;-66
2022/05/28 00:56:02;;;;;;;8.63;3.43;;;;;;;;;;5054998;28;20455;-66
2022/05/28 00:58:31;;;;;;;12.10;3.00;;;;;;;;;;5054153;28;20478;-66
2022/05/28 01:00:59;;;;;;;12.10;3.38;;;;;;;;;;5054471;28;20452;-66
2022/05/28 01:03:29;;;;;;;8.13;3.40;;;;;;;;;;5054506;28;20202;-66
2022/05/28 01:06:02;;;;;;;10.17;3.60;;;;;;;;;;5054531;28;20478;-66
2022/05/28 01:08:33;;;;;;;10.00;4.27;;;;;;;;;;5054348;28;20459;-66
2022/05/28 01:11:04;;;;;;;7.60;3.30;;;;;;;;;;5054734;28;20441;-67
2022/05/28 01:13:35;;;;;;;10.55;2.85;;;;;;;;;;5053954;28;20435;-67
2022/05/28 01:16:05;;;;;;;9.17;4.13;;;;;;;;;;5054956;28;20190;-67
2022/05/28 01:18:34;;;;;;;7.97;3.38;;;;;;;;;;5054396;28;20441;-66
2022/05/28 01:21:05;;;;;;;16.53;5.00;;;;;;;;;;5054169;28;20208;-67
2022/05/28 01:23:36;;;;;;;10.33;3.70;;;;;;;;;;5054185;28;20426;-68
2022/05/28 01:26:07;;;;;;;8.77;4.00;;;;;;;;;;5054661;28;20469;-67
2022/05/28 01:28:38;;;;;;;10.33;3.10;;;;;;;;;;5054062;28;20425;-67
2022/05/28 01:31:06;;;;;;;10.23;3.40;;;;;;;;;;5053731;28;20516;-68
2022/05/28 01:33:35;;;;;;;11.50;4.20;;;;;;;;;;5053611;28;20962;-68
2022/05/28 01:36:03;;;;;;;12.07;3.85;;;;;;;;;;5054223;28;20602;-67
2022/05/28 01:38:30;;;;;;;8.68;4.30;;;;;;;;;;5053838;28;20205;-67
2022/05/28 01:40:58;;;;;;;11.70;3.38;;;;;;;;;;5054128;28;20205;-67
2022/05/28 01:43:25;;;;;;;12.73;3.80;;;;;;;;;;5053725;28;20198;-66
2022/05/28 01:45:53;;;;;;;7.43;3.87;;;;;;;;;;5054190;28;20444;-67
2022/05/28 01:48:21;;;;;;;11.68;4.32;;;;;;;;;;5053334;28;20441;-67
2022/05/28 01:50:50;;;;;;;23.10;4.47;;;;;;;;;;5053656;28;20298;-67
2022/05/28 01:56:01;;;;;;;11.95;3.75;;;;;;;;;;5052523;28;20788;-67
2022/05/28 01:58:29;;;;;;;10.57;3.90;;;;;;;;;;5053329;28;20201;-67
2022/05/28 02:00:58;;;;;;;9.07;2.92;;;;;;;;;;5053519;28;20551;-67
2022/05/28 02:03:25;;;;;;;7.00;3.27;;;;;;;;;;5053290;28;20206;-66
2022/05/28 02:05:53;;;;;;;11.60;4.95;;;;;;;;;;5053399;28;20460;-67
2022/05/28 02:08:20;;;;;;;13.10;4.47;;;;;;;;;;5053336;28;20199;-67
2022/05/28 02:10:49;;;;;;;13.68;4.72;;;;;;;;;;5053421;28;20282;-67
2022/05/28 02:13:23;;;;;;;6.75;3.10;;;;;;;;;;5053476;28;20198;-66
2022/05/28 02:15:53;;;;;;;12.40;3.45;;;;;;;;;;5053468;28;20540;-67
2022/05/28 02:18:26;;;;;;;11.82;3.88;;;;;;;;;;5054147;28;20591;-66
2022/05/28 02:20:56;;;;;;;11.38;4.10;;;;;;;;;;5053398;28;20196;-67
2022/05/28 02:23:27;;;;;;;11.50;3.93;;;;;;;;;;5053381;28;20185;-67
2022/05/28 02:25:57;;;;;;;11.10;3.90;;;;;;;;;;5053007;28;20444;-66
2022/05/28 02:28:25;;;;;;;4.70;3.10;;;;;;;;;;5053800;28;20198;-67
2022/05/28 02:30:53;;;;;;;9.23;4.20;;;;;;;;;;5053261;28;20294;-67
2022/05/28 02:33:22;;;;;;;10.40;4.00;;;;;;;;;;5053287;28;20441;-67
2022/05/28 02:35:49;;;;;;;8.60;4.57;;;;;;;;;;5052737;28;20486;-66
2022/05/28 02:38:17;;;;;;;17.02;4.72;;;;;;;;;;5052976;28;20237;-66
2022/05/28 02:40:44;;;;;;;15.15;4.40;;;;;;;;;;5053079;28;20281;-66
2022/05/28 02:43:12;;;;;;;9.75;4.95;;;;;;;;;;5052888;28;20666;-65
2022/05/28 02:45:39;;;;;;;14.80;5.57;;;;;;;;;;5052745;28;20198;-66
2022/05/28 02:48:07;;;;;;;11.63;4.35;;;;;;;;;;5052811;28;20230;-66
2022/05/28 02:50:36;;;;;;;18.73;4.97;;;;;;;;;;5053006;28;20230;-66
2022/05/28 02:53:03;;;;;;;12.37;4.97;;;;;;;;;;5052786;28;20202;-67
2022/05/28 02:55:30;;;;;;;14.57;5.27;;;;;;;;;;5052684;28;20523;-66
2022/05/28 02:57:58;;;;;;;20.42;5.45;;;;;;;;;;5053110;28;20462;-66
2022/05/28 03:00:25;;;;;;;21.35;5.60;;;;;;;;;;5052994;28;20198;-66
2022/05/28 03:02:52;;;;;;;12.35;6.03;;;;;;;;;;5052700;28;20199;-66
2022/05/28 03:05:21;;;;;;;17.17;6.20;;;;;;;;;;5053696;28;20248;-66
2022/05/28 03:07:49;;;;;;;16.88;4.97;;;;;;;;;;5056701;28;20256;-66
2022/05/28 03:10:17;;;;;;;17.77;4.82;;;;;;;;;;5056461;28;20289;-66
2022/05/28 03:12:44;;;;;;;13.63;4.40;;;;;;;;;;5056906;28;20233;-66
2022/05/28 03:15:12;;;;;;;13.73;4.78;;;;;;;;;;5056668;28;20445;-66
2022/05/28 03:17:39;;;;;;;9.25;4.75;;;;;;;;;;5056620;28;20284;-66
2022/05/28 03:20:07;;;;;;;17.35;5.03;;;;;;;;;;5056452;28;20198;-66
2022/05/28 03:22:34;;;;;;;6.57;3.55;;;;;;;;;;5056136;28;20198;-66
2022/05/28 03:25:03;;;;;;;11.70;5.03;;;;;;;;;;5056202;28;20635;-66
2022/05/28 03:27:30;;;;;;;8.35;4.00;;;;;;;;;;5056289;28;20252;-66
2022/05/28 03:29:57;;;;;;;15.00;4.18;;;;;;;;;;5055896;28;20663;-66
2022/05/28 03:32:24;;;;;;;10.93;5.00;;;;;;;;;;5056486;28;20232;-67
2022/05/28 03:34:52;;;;;;;9.27;4.13;;;;;;;;;;5056160;28;20445;-66
2022/05/28 03:37:19;;;;;;;12.85;3.55;;;;;;;;;;5056506;28;20501;-66
2022/05/28 03:39:46;;;;;;;9.07;3.67;;;;;;;;;;5056119;28;20221;-66
2022/05/28 03:42:15;;;;;;;9.80;4.25;;;;;;;;;;5056021;28;20194;-66
2022/05/28 03:44:42;;;;;;;4.93;3.20;;;;;;;;;;5056113;28;20197;-66
2022/05/28 03:47:09;;;;;;;5.85;4.10;;;;;;;;;;5055837;28;20226;-66
2022/05/28 03:49:37;;;;;;;9.60;3.73;;;;;;;;;;5056048;28;20530;-66
2022/05/28 03:52:05;;;;;;;10.05;3.50;;;;;;;;;;5055558;28;20452;-66
2022/05/28 03:54:32;;;;;;;14.05;3.90;;;;;;;;;;5055539;28;20201;-67
2022/05/28 03:57:02;;;;;;;6.90;3.08;;;;;;;;;;5055429;28;20209;-66
2022/05/28 03:59:30;;;;;;;10.73;3.13;;;;;;;;;;5055539;28;20655;-66
2022/05/28 04:01:57;;;;;;;5.07;2.53;;;;;;;;;;5055794;28;20194;-67
2022/05/28 04:04:25;;;;;;;8.75;3.65;;;;;;;;;;5055421;28;20296;-67
2022/05/28 04:06:52;;;;;;;12.00;3.40;;;;;;;;;;5055202;28;20217;-67
2022/05/28 04:09:20;;;;;;;10.02;4.32;;;;;;;;;;5055308;28;20576;-67
2022/05/28 04:11:47;;;;;;;8.25;3.13;;;;;;;;;;5055242;28;20195;-67
2022/05/28 04:14:14;;;;;;;4.45;2.67;;;;;;;;;;5054409;28;20221;-66
2022/05/28 04:16:42;;;;;;;7.65;3.28;;;;;;;;;;5054274;28;20198;-66
2022/05/28 04:19:10;;;;;;;7.03;3.05;;;;;;;;;;5054336;28;20297;-66
2022/05/28 04:21:37;;;;;;;5.78;3.25;;;;;;;;;;5054354;28;20203;-66
2022/05/28 04:24:04;;;;;;;6.72;3.13;;;;;;;;;;5054607;28;20205;-66
2022/05/28 04:26:32;;;;;;;8.98;3.20;;;;;;;;;;5054788;28;20355;-66
2022/05/28 04:28:59;;;;;;;7.80;3.67;;;;;;;;;;5054975;28;20219;-66
2022/05/28 04:31:27;;;;;;;8.20;2.77;;;;;;;;;;5054870;28;20199;-66
2022/05/28 04:33:55;;;;;;;4.77;2.63;;;;;;;;;;5054808;28;20445;-66
2022/05/28 04:36:23;;;;;;;8.13;2.90;;;;;;;;;;5054395;28;20487;-66
2022/05/28 04:38:50;;;;;;;9.57;2.75;;;;;;;;;;5054602;28;20609;-67
2022/05/28 04:41:18;;;;;;;14.55;4.78;;;;;;;;;;5054451;28;20232;-66
2022/05/28 04:43:45;;;;;;;11.43;3.20;;;;;;;;;;5054442;28;20191;-66
2022/05/28 04:46:12;;;;;;;13.70;3.10;;;;;;;;;;5054827;28;20190;-66
2022/05/28 04:48:39;;;;;;;6.60;3.00;;;;;;;;;;5054464;28;20480;-67
2022/05/28 04:51:08;;;;;;;12.23;3.05;;;;;;;;;;5055042;28;20198;-67
2022/05/28 04:53:35;;;;;;;15.45;3.67;;;;;;;;;;5054770;28;20194;-66
2022/05/28 04:56:03;;;;;;;7.95;3.05;;;;;;;;;;5054729;28;20559;-67
2022/05/28 04:58:30;;;;;;;6.80;2.70;;;;;;;;;;5054362;28;20209;-67
2022/05/28 05:00:57;;;;;;;6.00;2.70;;;;;;;;;;5054553;28;20201;-67
2022/05/28 05:03:25;;;;;;;6.40;2.70;;;;;;;;;;5054584;28;20479;-67
2022/05/28 05:05:52;;;;;;;7.10;3.50;;;;;;;;;;5054240;28;20453;-67
2022/05/28 05:08:21;;;;;;;9.70;3.00;;;;;;;;;;5054480;28;20566;-67
2022/05/28 05:10:48;;;;;;;12.07;3.00;;;;;;;;;;5054139;28;20452;-67
2022/05/28 05:13:15;;;;;;;8.43;2.80;;;;;;;;;;5053897;28;20226;-67
2022/05/28 05:15:43;;;;;;;6.97;3.05;;;;;;;;;;5054443;28;20526;-68
2022/05/28 05:18:10;;;;;;;3.72;2.15;;;;;;;;;;5054276;28;20191;-67
2022/05/28 05:20:37;;;;;;;9.20;2.53;;;;;;;;;;5054332;28;20559;-67
2022/05/28 05:23:05;;;;;;;6.60;2.30;;;;;;;;;;5053858;28;20942;-68
2022/05/28 05:25:33;;;;;;;5.53;2.57;;;;;;;;;;5054093;28;20450;-68
2022/05/28 05:28:01;;;;;;;5.20;2.30;;;;;;;;;;5054055;28;20476;-68
2022/05/28 05:30:28;;;;;;;5.60;3.00;;;;;;;;;;5053732;28;20484;-68
2022/05/28 05:32:55;;;;;;;12.27;2.80;;;;;;;;;;5053606;28;20945;-68
2022/05/28 05:35:22;;;;;;;9.07;2.97;;;;;;;;;;5053978;28;20445;-68
2022/05/28 05:37:50;;;;;;;8.60;2.50;;;;;;;;;;5053792;28;20187;-68
2022/05/28 05:40:17;;;;;;;10.37;2.97;;;;;;;;;;5054045;28;20465;-68
2022/05/28 05:42:45;;;;;;;8.67;3.10;;;;;;;;;;5053783;28;20447;-67
2022/05/28 05:45:13;;;;;;;7.50;2.87;;;;;;;;;;5053930;28;20441;-68
2022/05/28 05:47:40;;;;;;;10.53;2.37;;;;;;;;;;5053290;28;20480;-68
2022/05/28 05:50:08;;;;;;;8.40;2.90;;;;;;;;;;5053773;28;20467;-68
2022/05/28 05:52:36;;;;;;;11.40;3.70;;;;;;;;;;5054033;28;20475;-67
2022/05/28 05:55:04;;;;;;;4.45;2.20;;;;;;;;;;5054011;28;20473;-68
2022/05/28 05:57:31;;;;;;;7.17;2.27;;;;;;;;;;5053244;28;20202;-68
2022/05/28 05:59:59;;;;;;;8.73;2.57;;;;;;;;;;5053171;28;20958;-68
2022/05/28 06:02:26;;;;;;;12.20;2.27;;;;;;;;;;5053543;28;20444;-67
2022/05/28 06:04:54;;;;;;;6.63;2.50;;;;;;;;;;5053733;28;20449;-68
2022/05/28 06:07:21;;;;;;;7.97;2.87;;;;;;;;;;5053323;28;20441;-78
2022/05/28 06:09:48;;;;;;;5.93;2.57;;;;;;;;;;5053505;28;20449;-69
2022/05/28 06:12:16;;;;;;;10.47;2.30;;;;;;;;;;5053391;28;20443;-69
2022/05/28 06:14:43;;;;;;;7.47;2.63;;;;;;;;;;5053320;28;20452;-69
2022/05/28 06:17:11;;;;;;;7.43;2.40;;;;;;;;;;5053250;28;20532;-66
2022/05/28 06:19:38;;;;;;;5.37;2.50;;;;;;;;;;5053357;28;20442;-69
2022/05/28 06:22:06;;;;;;;6.80;2.80;;;;;;;;;;5053025;28;20446;-68
2022/05/28 06:24:33;;;;;;;11.70;2.50;;;;;;;;;;5053437;28;20445;-68
2022/05/28 06:27:01;;;;;;;7.23;2.73;;;;;;;;;;5052982;28;20437;-68
2022/05/28 06:29:28;;;;;;;17.00;3.00;;;;;;;;;;5052482;28;20489;-68
2022/05/28 06:31:56;;;;;;;6.30;2.10;;;;;;;;;;5052914;28;20450;-68
2022/05/28 06:34:25;;;;;;;3.77;2.60;;;;;;;;;;5053066;28;20530;-68
2022/05/28 06:36:53;;;;;;;6.90;2.90;;;;;;;;;;5053211;28;20820;-68
2022/05/28 06:39:20;;;;;;;8.60;2.60;;;;;;;;;;5053188;28;20453;-67
2022/05/28 06:41:47;;;;;;;9.97;2.17;;;;;;;;;;5055831;28;20438;-67
2022/05/28 06:44:14;;;;;;;9.37;2.73;;;;;;;;;;5057093;28;20797;-68
2022/05/28 06:46:42;;;;;;;9.73;2.27;;;;;;;;;;5057204;28;20454;-68
2022/05/28 06:49:09;;;;;;;12.50;2.80;;;;;;;;;;5056928;28;20481;-68
2022/05/28 06:51:39;;;;;;;6.20;2.15;;;;;;;;;;5057015;28;20441;-68
2022/05/28 06:54:07;;;;;;;11.50;3.20;;;;;;;;;;5056932;28;20183;-68
2022/05/28 06:56:34;;;;;;;10.10;2.40;;;;;;;;;;5057598;28;20448;-67
2022/05/28 06:59:01;;;;;;;4.80;2.77;;;;;;;;;;5056696;28;20453;-68
2022/05/28 07:01:29;;;;;;;10.80;2.70;;;;;;;;;;5056839;28;20528;-66
2022/05/28 07:03:56;;;;;;;4.90;2.40;;;;;;;;;;5056707;28;20464;-68
2022/05/28 07:06:24;;;;;;;6.57;2.40;;;;;;;;;;5057020;28;20544;-68
2022/05/28 07:08:52;;;;;;;8.57;2.50;;;;;;;;;;5056967;28;20487;-67
2022/05/28 07:11:19;;;;;;;4.70;1.90;;;;;;;;;;5056404;28;20996;-67
2022/05/28 07:13:47;;;;;;;2.60;2.20;;;;;;;;;;5056507;28;20873;-67
2022/05/28 07:16:14;;;;;;;12.13;3.40;;;;;;;;;;5056904;28;20448;-68
2022/05/28 07:18:42;;;;;;;7.73;2.50;;;;;;;;;;5056163;28;20451;-68
2022/05/28 07:21:10;;;;;;;8.63;2.37;;;;;;;;;;5056772;28;20438;-68
2022/05/28 07:23:38;;;;;;;8.50;2.23;;;;;;;;;;5056346;28;20447;-68
2022/05/28 07:26:10;;;;;;;8.67;2.33;;;;;;;;;;5056779;28;20441;-68
2022/05/28 07:28:38;;;;;;;8.73;1.90;;;;;;;;;;5056420;28;20465;-67
2022/05/28 07:31:06;;;;;;;6.60;2.20;;;;;;;;;;5055860;28;20452;-65
2022/05/28 07:33:35;;;;;;;8.50;2.10;;;;;;;;;;5056454;28;20442;-67
2022/05/28 07:36:02;;;;;;;3.93;2.27;;;;;;;;;;5056106;28;20538;-68
2022/05/28 07:38:30;;;;;;;4.40;1.70;;;;;;;;;;5056616;28;20446;-67
2022/05/28 07:40:57;;;;;;;5.03;2.10;;;;;;;;;;5056080;28;20439;-68
2022/05/28 07:43:26;;;;;;;4.40;2.23;;;;;;;;;;5055687;28;20524;-67
2022/05/28 07:45:53;;;;;;;8.93;2.70;;;;;;;;;;5056041;28;20528;-68
2022/05/28 07:48:21;;;;;;;8.80;2.07;;;;;;;;;;5055801;28;20709;-67
2022/05/28 07:50:48;;;;;;;8.20;2.20;;;;;;;;;;5056498;28;20449;-68
2022/05/28 07:53:15;;;;;;;4.57;2.03;;;;;;;;;;5054881;28;20528;-68
2022/05/28 07:55:42;;;;;;;3.70;1.93;;;;;;;;;;5055772;28;20477;-68
2022/05/28 07:58:10;;;;;;;10.57;2.57;;;;;;;;;;5055432;28;20533;-67
2022/05/28 08:00:40;;;;;;;8.93;2.47;;;;;;;;;;5055749;28;20453;-68
2022/05/28 08:03:08;;;;;;;4.47;1.70;;;;;;;;;;5055947;28;20439;-68
2022/05/28 08:05:35;;;;;;;8.17;2.67;;;;;;;;;;5055632;28;20450;-67
2022/05/28 08:08:02;;;;;;;5.43;2.03;;;;;;;;;;5055487;28;20447;-67
2022/05/28 08:10:30;;;;;;;6.90;1.93;;;;;;;;;;5055365;28;20442;-67
2022/05/28 08:13:00;;;;;;;6.43;2.40;;;;;;;;;;5055567;28;20453;-68
2022/05/28 08:15:27;;;;;;;4.93;2.30;;;;;;;;;;5055554;28;20447;-68
2022/05/28 08:17:56;;;;;;;6.13;2.33;;;;;;;;;;5055051;28;20438;-68
2022/05/28 08:23:08;;;;;;;3.50;1.80;;;;;;;;;;5055360;28;20443;-68
2022/05/28 08:23:10;;;;;;;10.37;2.40;;;;;;;;;;5055141;28;20426;-66
2022/05/28 08:25:39;;;;;;;7.40;2.07;;;;;;;;;;5055178;28;20452;-68
2022/05/28 08:28:06;;;;;;;6.20;2.33;;;;;;;;;;5055185;28;20593;-68
2022/05/28 08:30:33;;;;;;;9.60;2.30;;;;;;;;;;5055052;28;20449;-68
2022/05/28 08:33:01;;;;;;;6.10;2.10;;;;;;;;;;5055869;28;20441;-68
2022/05/28 08:35:29;;;;;;;5.47;2.00;;;;;;;;;;5054635;28;20450;-68
2022/05/28 08:37:56;;;;;;;7.50;2.20;;;;;;;;;;5055311;28;20430;-68
2022/05/28 08:40:24;;;;;;;5.30;2.10;;;;;;;;;;5054895;28;20438;-68
2022/05/28 08:42:52;;;;;;;11.17;2.67;;;;;;;;;;5054895;28;20446;-68
2022/05/28 08:45:19;;;;;;;8.80;3.10;;;;;;;;;;5054836;28;20496;-68
2022/05/28 08:47:48;;;;;;;4.40;2.07;;;;;;;;;;5054893;28;20445;-68
2022/05/28 08:50:17;;;;;;;2.80;1.90;;;;;;;;;;5054670;28;20569;-69
2022/05/28 08:52:47;;;;;;;6.97;2.20;;;;;;;;;;5054748;28;20800;-68
2022/05/28 08:55:17;;;;;;;4.40;2.07;;;;;;;;;;5054304;28;20453;-68
2022/05/28 08:57:49;;;;;;;6.53;1.93;;;;;;;;;;5054910;28;20496;-68
2022/05/28 09:00:18;;;;;;;2.23;1.50;;;;;;;;;;5054169;28;20445;-69
2022/05/28 09:02:48;;;;;;;2.03;1.70;;;;;;;;;;5054517;28;20449;-68
2022/05/28 09:05:21;;;;;;;5.40;1.90;;;;;;;;;;5053961;28;20477;-69
2022/05/28 09:07:48;;;;;;;3.70;1.77;;;;;;;;;;5054636;28;20431;-68
2022/05/28 09:10:15;;;;;;;3.30;1.70;;;;;;;;;;5053947;28;20479;-68
2022/05/28 09:12:45;;;;;;;3.57;2.00;;;;;;;;;;5054082;28;20441;-68
2022/05/28 09:15:13;;;;;;;6.57;2.10;;;;;;;;;;5053906;28;20536;-68
2022/05/28 09:17:42;;;;;;;3.30;2.10;;;;;;;;;;5053965;28;20500;-69
2022/05/28 09:20:11;;;;;;;3.80;1.67;;;;;;;;;;5054262;28;20449;-69
2022/05/28 09:22:39;;;;;;;4.40;1.70;;;;;;;;;;5054318;28;20449;-68
2022/05/28 09:25:07;;;;;;;5.33;2.10;;;;;;;;;;5054389;28;20449;-68
2022/05/28 09:27:36;;;;;;;4.77;1.80;;;;;;;;;;5054123;28;20435;-69
2022/05/28 09:30:14;;;;;;;3.80;1.73;;;;;;;;;;5054112;28;20475;-68
2022/05/28 09:33:02;;;;;;;5.40;2.13;;;;;;;;;;5053988;28;20523;-68
2022/05/28 09:35:35;;;;;;;4.70;2.10;;;;;;;;;;5048952;28;20455;-68
2022/05/28 09:38:05;;;;;;;5.43;1.90;;;;;;;;;;5053758;28;20441;-68
2022/05/28 09:40:36;;;;;;;5.33;2.13;;;;;;;;;;5053945;28;20444;-68
2022/05/28 09:43:15;;;;;;;6.87;2.03;;;;;;;;;;5054123;28;20780;-68
2022/05/28 09:45:46;;;;;;;4.17;2.00;;;;;;;;;;5053513;28;20431;-68
2022/05/28 09:48:20;;;;;;;2.60;1.80;;;;;;;;;;5053868;28;20439;-68
2022/05/28 09:50:48;;;;;;;5.17;2.10;;;;;;;;;;5053685;28;20443;-68
2022/05/28 09:56:11;;;;;;;5.10;2.10;;;;;;;;;;5053497;28;20399;-68
2022/05/28 09:58:39;;;;;;;4.50;2.10;;;;;;;;;;5053675;28;20439;-68
2022/05/28 10:01:11;;;;;;;9.90;2.20;;;;;;;;;;5053307;28;20444;-69
2022/05/28 10:06:24;;;;;;;4.00;2.13;;;;;;;;;;5054110;28;20439;-68
2022/05/28 10:08:53;;;;;;;7.93;2.10;;;;;;;;;;5053088;28;20482;-69
2022/05/28 10:11:22;;;;;;;7.07;2.23;;;;;;;;;;5053129;28;20443;-68
2022/05/28 10:13:50;;;;;;;5.83;2.30;;;;;;;;;;5053500;28;20808;-68
2022/05/28 10:16:18;;;;;;;3.97;2.20;;;;;;;;;;5052723;28;20445;-68
2022/05/28 10:18:51;;;;;;;5.33;2.70;;;;;;;;;;5053479;28;20819;-68
2022/05/28 10:21:19;;;;;;;4.70;2.40;;;;;;;;;;5053387;28;20866;-68
2022/05/28 10:23:51;;;;;;;7.10;2.40;;;;;;;;;;5053406;28;20445;-69
2022/05/28 10:26:22;;;;;;;10.93;2.40;;;;;;;;;;5053016;28;20895;-68
2022/05/28 10:28:50;;;;;;;5.93;2.20;;;;;;;;;;5053304;28;20441;-68
2022/05/28 10:31:18;;;;;;;3.40;2.00;;;;;;;;;;5053646;28;20441;-68
2022/05/28 10:33:46;;;;;;;3.30;2.00;;;;;;;;;;5053021;28;20955;-68
2022/05/28 10:36:17;;;;;;;3.67;1.87;;;;;;;;;;5052618;28;20572;-68
2022/05/28 10:38:44;;;;;;;5.80;2.23;;;;;;;;;;5052983;28;20430;-68
2022/05/28 10:41:17;;;;;;;2.83;1.97;;;;;;;;;;5053122;28;20614;-68
2022/05/28 10:43:45;;;;;;;5.10;2.00;;;;;;;;;;5053119;28;20441;-68
2022/05/28 10:46:17;;;;;;;7.07;2.20;;;;;;;;;;5053368;28;20438;-68
2022/05/28 10:49:02;;;;;;;7.40;2.47;;;;;;;;;;5052845;28;20435;-68
2022/05/28 10:51:34;;;;;;;2.90;2.10;;;;;;;;;;5052925;28;20415;-68
2022/05/28 10:54:09;;;;;;;4.13;2.50;;;;;;;;;;5053414;28;20440;-75
2022/05/28 10:56:48;;;;;;;9.23;3.00;;;;;;;;;;5052767;28;20430;-68
2022/05/28 10:59:21;;;;;;;4.00;2.43;;;;;;;;;;5053105;28;20822;-69
2022/05/28 11:01:50;;;;;;;8.20;3.00;;;;;;;;;;5052513;28;20784;-68
2022/05/28 11:04:41;;;;;;;4.53;2.33;;;;;;;;;;5052653;28;20536;-68
2022/05/28 11:07:19;;;;;;;7.73;2.80;;;;;;;;;;5037862;28;20451;-68
2022/05/28 11:09:53;;;;;;;10.50;3.10;;;;;;;;;;5053032;28;20498;-68
2022/05/28 11:12:36;;;;;;;6.30;3.00;;;;;;;;;;5052885;28;20427;-68
2022/05/28 11:15:26;;;;;;;6.43;3.17;;;;;;;;;;5053058;28;20423;-68
2022/05/28 11:18:02;;;;;;;4.67;2.23;;;;;;;;;;5053184;28;20435;-68
2022/05/28 11:20:32;;;;;;;6.47;2.87;;;;;;;;;;5052589;28;20434;-68
2022/05/28 11:23:18;;;;;;;10.07;2.53;;;;;;;;;;5052458;28;20444;-68
2022/05/28 11:25:51;;;;;;;8.03;2.90;;;;;;;;;;5052970;28;20423;-68
2022/05/28 11:28:32;;;;;;;9.63;2.57;;;;;;;;;;5056078;28;20452;-68
2022/05/28 11:31:05;;;;;;;4.60;1.70;;;;;;;;;;5056922;28;20831;-68
2022/05/28 11:33:35;;;;;;;8.60;2.73;;;;;;;;;;5056362;28;20537;-69
2022/05/28 11:36:05;;;;;;;8.43;3.10;;;;;;;;;;5056415;28;20485;-68
2022/05/28 11:38:34;;;;;;;3.47;2.30;;;;;;;;;;5055861;28;20948;-69
2022/05/28 11:41:03;;;;;;;4.97;2.60;;;;;;;;;;5056375;28;20444;-69
2022/05/28 11:43:33;;;;;;;5.20;2.20;;;;;;;;;;5055745;28;20442;-68
2022/05/28 11:46:03;;;;;;;8.40;2.70;;;;;;;;;;5056109;28;20448;-68
2022/05/28 11:51:31;;;;;;;4.33;2.20;;;;;;;;;;5055612;28;20465;-68
2022/05/28 11:54:00;;;;;;;6.30;2.63;;;;;;;;;;5055633;28;20530;-68
2022/05/28 11:56:29;;;;;;;10.50;2.40;;;;;;;;;;5056106;28;20443;-68
2022/05/28 11:58:58;;;;;;;7.47;2.77;;;;;;;;;;5055869;28;20450;-69
2022/05/28 12:01:28;;;;;;;7.60;2.40;;;;;;;;;;5055876;28;20459;-69
2022/05/28 12:03:56;;;;;;;7.33;2.17;;;;;;;;;;5055875;28;20423;-68
2022/05/28 12:06:27;;;;;;;7.47;2.80;;;;;;;;;;5056281;28;20455;-68
2022/05/28 12:09:01;;;;;;;4.20;2.20;;;;;;;;;;5055637;28;20762;-69
2022/05/28 12:11:38;;;;;;;8.00;2.27;;;;;;;;;;5055520;28;20467;-68
2022/05/28 12:14:06;;;;;;;8.87;2.43;;;;;;;;;;5055597;28;20429;-68
2022/05/28 12:16:36;;;;;;;6.00;2.10;;;;;;;;;;5055193;28;20441;-68
2022/05/28 12:19:07;;;;;;;4.87;2.00;;;;;;;;;;5055688;28;20444;-68
2022/05/28 12:21:35;;;;;;;5.43;2.20;;;;;;;;;;5050495;28;20848;-68
2022/05/28 12:24:08;;;;;;;7.37;2.53;;;;;;;;;;5035155;28;20448;-68
2022/05/28 12:26:49;;;;;;;15.37;3.13;;;;;;;;;;5035837;28;20435;-68
2022/05/28 12:29:39;;;;;;;5.53;2.30;;;;;;;;;;5035458;28;20443;-68
2022/05/28 12:32:24;;;;;;;7.23;2.47;;;;;;;;;;5032922;28;20453;-69
2022/05/28 12:34:52;;;;;;;7.13;2.33;;;;;;;;;;5035027;28;20448;-68
2022/05/28 12:37:21;;;;;;;4.50;2.30;;;;;;;;;;5035657;28;20467;-68
2022/05/28 12:39:54;;;;;;;3.83;2.57;;;;;;;;;;5034497;28;20449;-68
2022/05/28 12:42:23;;;;;;;4.93;2.03;;;;;;;;;;5035437;28;20829;-68
2022/05/28 12:44:51;;;;;;;7.87;2.70;;;;;;;;;;5034993;28;20453;-69
2022/05/28 12:47:33;;;;;;;3.53;2.30;;;;;;;;;;5034985;28;20448;-68
2022/05/28 12:50:04;;;;;;;3.90;2.60;;;;;;;;;;5034581;28;20463;-68
2022/05/28 12:52:38;;;;;;;6.33;2.60;;;;;;;;;;5035151;28;20439;-68
2022/05/28 12:55:18;;;;;;;8.90;2.80;;;;;;;;;;5034790;28;20489;-68
2022/05/28 12:58:01;;;;;;;6.27;2.40;;;;;;;;;;5035019;28;20448;-68
2022/05/28 13:00:30;;;;;;;4.70;2.37;;;;;;;;;;5043456;28;20469;-68
2022/05/28 13:02:59;;;;;;;6.90;2.60;;;;;;;;;;5054545;28;20447;-68
2022/05/28 13:05:33;;;;;;;9.50;2.50;;;;;;;;;;5054052;28;20551;-70
2022/05/28 13:08:04;;;;;;;6.60;2.10;;;;;;;;;;5054226;28;20443;-68
2022/05/28 13:10:31;;;;;;;4.07;2.53;;;;;;;;;;5054592;28;20475;-71
2022/05/28 13:13:03;;;;;;;5.30;2.23;;;;;;;;;;5054388;28;20442;-69
2022/05/28 13:15:42;;;;;;;8.30;2.40;;;;;;;;;;5054153;28;20517;-68
2022/05/28 13:18:27;;;;;;;6.73;2.50;;;;;;;;;;5055109;28;20439;-67
2022/05/28 13:21:06;;;;;;;4.90;2.17;;;;;;;;;;5054209;28;20519;-68
2022/05/28 13:23:42;;;;;;;4.50;1.70;;;;;;;;;;5054193;28;20449;-68
2022/05/28 13:26:21;;;;;;;5.77;2.50;;;;;;;;;;5054858;28;20430;-68
2022/05/28 13:28:58;;;;;;;4.93;2.30;;;;;;;;;;5054215;28;20421;-68
2022/05/28 13:31:28;;;;;;;3.17;1.93;;;;;;;;;;5053932;28;20477;-68
2022/05/28 13:33:57;;;;;;;5.40;2.43;;;;;;;;;;5054453;28;20426;-68
2022/05/28 13:36:26;;;;;;;7.57;2.43;;;;;;;;;;5054286;28;20509;-69
2022/05/28 13:38:54;;;;;;;3.60;1.83;;;;;;;;;;5053592;28;20952;-68
2022/05/28 13:41:23;;;;;;;3.90;2.23;;;;;;;;;;5053638;28;20436;-69
2022/05/28 13:43:52;;;;;;;6.07;3.00;;;;;;;;;;5053307;28;20536;-67
2022/05/28 13:46:20;;;;;;;3.60;2.10;;;;;;;;;;5053805;28;20438;-67
2022/05/28 13:48:49;;;;;;;4.33;1.73;;;;;;;;;;5053360;28;20444;-67
2022/05/28 13:51:18;;;;;;;5.30;2.83;;;;;;;;;;5052444;28;20536;-67
2022/05/28 13:53:46;;;;;;;5.67;2.60;;;;;;;;;;5053447;28;20940;-68
2022/05/28 13:56:16;;;;;;;11.40;2.67;;;;;;;;;;5054345;28;20448;-67
2022/05/28 13:58:44;;;;;;;7.43;2.17;;;;;;;;;;5053533;28;20945;-67
2022/05/28 14:01:13;;;;;;;6.90;2.60;;;;;;;;;;5053546;28;20449;-67
2022/05/28 14:03:41;;;;;;;8.13;3.40;;;;;;;;;;5053744;28;20450;-67
2022/05/28 14:06:14;;;;;;;5.03;2.30;;;;;;;;;;5053755;28;20468;-67
2022/05/28 14:08:44;;;;;;;6.80;2.40;;;;;;;;;;5054138;28;20436;-67
2022/05/28 14:11:15;;;;;;;9.03;2.60;;;;;;;;;;5053591;28;20485;-67
2022/05/28 14:13:45;;;;;;;8.00;2.87;;;;;;;;;;5053774;28;20520;-67
2022/05/28 14:16:16;;;;;;;7.43;2.70;;;;;;;;;;5053043;28;20442;-67
2022/05/28 14:18:43;;;;;;;4.93;2.30;;;;;;;;;;5053426;28;20432;-67
2022/05/28 14:21:12;;;;;;;7.70;2.50;;;;;;;;;;5053000;28;20447;-67
2022/05/28 14:23:45;;;;;;;7.60;3.20;;;;;;;;;;5053524;28;20439;-67
2022/05/28 14:26:14;;;;;;;6.40;2.33;;;;;;;;;;5053392;28;20472;-67
2022/05/28 14:28:42;;;;;;;7.47;2.70;;;;;;;;;;5053255;28;20443;-67
2022/05/28 14:31:09;;;;;;;7.60;2.90;;;;;;;;;;5052781;28;20474;-68
2022/05/28 14:33:39;;;;;;;6.47;2.40;;;;;;;;;;5053368;28;20435;-67
2022/05/28 14:36:08;;;;;;;7.10;2.17;;;;;;;;;;5052627;28;20482;-67
2022/05/28 14:38:35;;;;;;;7.20;2.63;;;;;;;;;;5053192;28;20443;-67
2022/05/28 14:41:10;;;;;;;9.13;2.33;;;;;;;;;;5053679;28;20448;-67
2022/05/28 14:43:37;;;;;;;4.73;2.50;;;;;;;;;;5053581;28;20518;-67
2022/05/28 14:46:09;;;;;;;7.47;2.23;;;;;;;;;;5052909;28;20816;-67
2022/05/28 14:48:36;;;;;;;6.93;3.13;;;;;;;;;;5052872;28;20433;-67
2022/05/28 14:51:04;;;;;;;6.03;2.70;;;;;;;;;;5052974;28;20483;-67
2022/05/28 14:53:33;;;;;;;9.10;2.87;;;;;;;;;;5053096;28;20482;-68
2022/05/28 14:56:00;;;;;;;4.90;2.00;;;;;;;;;;5053113;28;20597;-68
2022/05/28 14:58:39;;;;;;;6.03;2.40;;;;;;;;;;5053167;28;20443;-68
2022/05/28 15:01:08;;;;;;;3.40;2.30;;;;;;;;;;5053584;28;20426;-68
2022/05/28 15:03:36;;;;;;;6.40;2.80;;;;;;;;;;5056791;28;20445;-67
2022/05/28 15:06:10;;;;;;;5.63;2.40;;;;;;;;;;5057206;28;20454;-68